Time;durP1;ratioP1;P1;durP2;ratioP2;P2;SDS_P1;SDS_P2;PMS_P1;PMS_P2;Temp;Humidity;BMP_temperature;BMP_pressure;BME280_temperature;BME280_humidity;BME280_pressure;Samples;Min_cycle;Max_cycle;Signal;HPM_P1;HPM_P2
2023/08/23 00:00:05;;;;;;;2.47;1.50;;;21.20;99.90;;;;;;5054434;28;20185;-68
2023/08/23 00:02:31;;;;;;;2.22;1.65;;;21.20;99.90;;;;;;5053045;28;20272;-70
2023/08/23 00:04:56;;;;;;;2.42;1.90;;;21.20;99.90;;;;;;5054736;28;20197;-69
2023/08/23 00:07:27;;;;;;;4.18;2.00;;;21.20;99.90;;;;;;5057965;28;20267;-69
2023/08/23 00:09:53;;;;;;;2.67;1.90;;;21.20;99.90;;;;;;5061562;28;20472;-70
2023/08/23 00:12:18;;;;;;;2.40;1.90;;;21.10;99.90;;;;;;5057558;28;20195;-69
2023/08/23 00:14:44;;;;;;;2.67;1.80;;;21.10;99.90;;;;;;5053956;28;20431;-69
2023/08/23 00:17:12;;;;;;;4.32;1.90;;;21.10;99.90;;;;;;5060070;28;20179;-69
2023/08/23 00:19:38;;;;;;;2.88;1.83;;;21.10;99.90;;;;;;5049252;28;20197;-69
2023/08/23 00:22:06;;;;;;;3.35;1.90;;;21.10;99.90;;;;;;5065237;28;20184;-69
2023/08/23 00:24:31;;;;;;;4.03;2.08;;;21.10;99.90;;;;;;5054000;28;20181;-69
2023/08/23 00:26:57;;;;;;;3.05;1.90;;;21.10;99.90;;;;;;5054560;28;20195;-69
2023/08/23 00:29:23;;;;;;;3.90;2.03;;;21.00;99.90;;;;;;5054334;28;20180;-69
2023/08/23 00:31:48;;;;;;;3.10;2.03;;;21.00;99.90;;;;;;5057553;28;20180;-69
2023/08/23 00:34:14;;;;;;;2.55;1.80;;;20.90;99.90;;;;;;5057894;28;20169;-69
2023/08/23 00:36:39;;;;;;;4.53;2.10;;;20.90;99.90;;;;;;5057688;28;20199;-70
2023/08/23 00:39:05;;;;;;;2.70;2.17;;;20.90;99.90;;;;;;5057644;28;20197;-68
2023/08/23 00:41:31;;;;;;;4.32;2.03;;;20.80;99.90;;;;;;5057744;28;20180;-70
2023/08/23 00:43:56;;;;;;;3.35;1.70;;;20.80;99.90;;;;;;5060932;28;20524;-69
2023/08/23 00:46:25;;;;;;;2.47;1.75;;;20.70;99.90;;;;;;5064864;28;20226;-69
2023/08/23 00:48:51;;;;;;;3.03;1.90;;;20.70;99.90;;;;;;5057117;28;20220;-69
2023/08/23 00:51:20;;;;;;;2.58;1.80;;;20.70;99.90;;;;;;5054371;28;20226;-69
2023/08/23 00:53:46;;;;;;;3.40;1.98;;;20.70;99.90;;;;;;5061366;28;20173;-67
2023/08/23 00:56:15;;;;;;;2.80;2.00;;;20.70;99.90;;;;;;5056673;28;20310;-69
2023/08/23 00:58:43;;;;;;;2.40;2.05;;;20.70;99.90;;;;;;5053267;28;20231;-68
2023/08/23 01:01:08;;;;;;;2.42;1.70;;;20.70;99.90;;;;;;5050733;28;20181;-70
2023/08/23 01:03:39;;;;;;;3.53;1.85;;;20.60;99.90;;;;;;5069940;28;20184;-69
2023/08/23 01:06:09;;;;;;;2.05;1.70;;;20.70;99.90;;;;;;5054522;28;20288;-69
2023/08/23 01:09:02;;;;;;;2.65;1.88;;;20.60;99.90;;;;;;5039955;28;20339;-69
2023/08/23 01:11:40;;;;;;;3.80;1.63;;;20.70;99.90;;;;;;5047492;28;20274;-68
2023/08/23 01:14:40;;;;;;;3.38;1.90;;;20.60;99.90;;;;;;5076136;28;20302;-69
2023/08/23 01:17:10;;;;;;;2.00;1.80;;;20.60;99.90;;;;;;5041186;28;20195;-69
2023/08/23 01:19:46;;;;;;;3.53;1.73;;;20.60;99.90;;;;;;5062391;28;20200;-69
2023/08/23 01:22:17;;;;;;;4.93;1.80;;;20.60;99.90;;;;;;5057314;28;20173;-69
2023/08/23 01:24:46;;;;;;;2.20;1.80;;;20.60;99.90;;;;;;5041034;28;20161;-68
2023/08/23 01:27:12;;;;;;;3.25;2.00;;;20.50;99.90;;;;;;5059357;28;20200;-69
2023/08/23 01:29:37;;;;;;;7.97;2.17;;;20.50;99.90;;;;;;5060893;28;20207;-69
2023/08/23 01:32:19;;;;;;;3.55;1.70;;;20.50;99.90;;;;;;5057428;28;20177;-69
2023/08/23 01:34:53;;;;;;;2.90;1.65;;;20.50;99.90;;;;;;5066118;28;20196;-70
2023/08/23 01:37:21;;;;;;;1.70;1.55;;;20.40;99.90;;;;;;5063783;28;20513;-69
2023/08/23 01:39:53;;;;;;;2.42;1.67;;;20.40;99.90;;;;;;5060268;28;20187;-68
2023/08/23 01:42:22;;;;;;;2.95;1.95;;;20.40;99.90;;;;;;5049837;28;20323;-69
2023/08/23 01:44:50;;;;;;;4.75;1.95;;;20.40;99.90;;;;;;5075105;28;20180;-69
2023/08/23 01:47:17;;;;;;;2.20;1.55;;;20.30;99.90;;;;;;5061852;28;20197;-69
2023/08/23 01:49:43;;;;;;;2.63;1.83;;;20.30;99.90;;;;;;5070957;28;20223;-69
2023/08/23 01:52:08;;;;;;;3.42;2.00;;;20.30;99.90;;;;;;5061302;28;20177;-69
2023/08/23 01:54:34;;;;;;;4.50;1.88;;;20.20;99.90;;;;;;5069396;28;20189;-69
2023/08/23 01:56:59;;;;;;;3.25;1.83;;;20.20;99.90;;;;;;5058594;28;20173;-68
2023/08/23 01:59:27;;;;;;;3.83;2.10;;;20.20;99.90;;;;;;5069905;28;20173;-69
2023/08/23 02:01:53;;;;;;;2.42;1.67;;;20.20;99.90;;;;;;5071682;28;20208;-69
2023/08/23 02:04:24;;;;;;;2.63;2.03;;;20.20;99.90;;;;;;5053266;28;20170;-70
2023/08/23 02:06:52;;;;;;;2.97;1.90;;;20.10;99.90;;;;;;5056166;28;20174;-69
2023/08/23 02:09:20;;;;;;;2.47;1.75;;;20.10;99.90;;;;;;5043650;28;20180;-68
2023/08/23 02:11:45;;;;;;;2.60;1.77;;;20.00;99.90;;;;;;5058709;28;20173;-69
2023/08/23 02:14:11;;;;;;;1.80;1.70;;;20.00;99.90;;;;;;5054970;28;20177;-70
2023/08/23 02:16:37;;;;;;;2.50;2.00;;;20.00;99.90;;;;;;5056074;28;20168;-67
2023/08/23 02:19:02;;;;;;;2.25;1.90;;;20.00;99.90;;;;;;5058514;28;20172;-70
2023/08/23 02:21:29;;;;;;;3.05;1.73;;;19.90;99.90;;;;;;5058298;28;20204;-69
2023/08/23 02:23:54;;;;;;;2.97;2.05;;;19.90;99.90;;;;;;5058915;28;20179;-69
2023/08/23 02:26:22;;;;;;;2.20;1.80;;;19.90;99.90;;;;;;5058703;28;20176;-69
2023/08/23 02:28:48;;;;;;;2.47;1.73;;;19.90;99.90;;;;;;5058831;28;20212;-69
2023/08/23 02:31:16;;;;;;;3.17;2.05;;;19.80;99.90;;;;;;5056995;28;20196;-69
2023/08/23 02:33:44;;;;;;;2.42;1.90;;;19.80;99.90;;;;;;5067559;28;20255;-69
2023/08/23 02:36:09;;;;;;;2.17;1.85;;;19.70;99.90;;;;;;5056765;28;20287;-69
2023/08/23 02:38:35;;;;;;;3.58;1.92;;;19.70;99.90;;;;;;5057920;28;20227;-69
2023/08/23 02:41:00;;;;;;;2.33;1.70;;;19.60;99.90;;;;;;5055307;28;20174;-69
2023/08/23 02:43:26;;;;;;;2.65;1.90;;;19.60;99.90;;;;;;5072331;28;20188;-68
2023/08/23 02:45:52;;;;;;;3.05;1.85;;;19.60;99.90;;;;;;5066473;28;20174;-69
2023/08/23 02:48:17;;;;;;;3.42;1.75;;;19.60;99.90;;;;;;5032868;28;1103529;-66
2023/08/23 02:50:45;;;;;;;2.92;2.05;;;19.60;99.90;;;;;;5058421;28;20225;-69
2023/08/23 02:53:11;;;;;;;3.25;2.10;;;19.60;99.90;;;;;;5051618;28;20192;-68
2023/08/23 02:55:37;;;;;;;2.63;1.90;;;19.60;99.90;;;;;;5059310;28;20202;-69
2023/08/23 02:58:03;;;;;;;2.60;1.83;;;19.60;99.90;;;;;;5054962;28;20173;-69
2023/08/23 03:00:31;;;;;;;3.78;2.00;;;19.60;99.90;;;;;;5059137;28;20187;-69
2023/08/23 03:02:59;;;;;;;1.63;1.52;;;19.50;99.90;;;;;;5051901;28;20218;-69
2023/08/23 03:05:25;;;;;;;2.65;1.95;;;19.50;99.90;;;;;;5063851;28;20212;-69
2023/08/23 03:07:52;;;;;;;1.95;1.75;;;19.50;99.90;;;;;;5044421;28;20209;-66
2023/08/23 03:10:18;;;;;;;3.47;2.05;;;19.50;99.90;;;;;;5048088;28;20196;-69
2023/08/23 03:12:46;;;;;;;2.15;1.55;;;19.50;99.90;;;;;;5058414;28;20253;-69
2023/08/23 03:15:11;;;;;;;2.50;1.70;;;19.40;99.90;;;;;;5058379;28;20205;-68
2023/08/23 03:17:37;;;;;;;2.15;1.70;;;19.40;99.90;;;;;;5065653;28;20183;-68
2023/08/23 03:20:08;;;;;;;4.57;2.08;;;19.40;99.90;;;;;;5068599;28;20231;-69
2023/08/23 03:22:33;;;;;;;4.20;2.00;;;19.40;99.90;;;;;;5058622;28;20209;-69
2023/08/23 03:24:59;;;;;;;2.80;2.00;;;19.40;99.90;;;;;;5059137;28;20183;-69
2023/08/23 03:27:25;;;;;;;2.25;1.80;;;19.40;99.90;;;;;;5058781;28;20314;-67
2023/08/23 03:29:55;;;;;;;5.72;2.00;;;19.40;99.90;;;;;;5057361;28;20238;-66
2023/08/23 03:32:21;;;;;;;3.78;1.95;;;19.30;99.90;;;;;;5055042;28;20230;-68
2023/08/23 03:34:47;;;;;;;2.30;1.80;;;19.30;99.90;;;;;;5055617;28;20169;-69
2023/08/23 03:37:12;;;;;;;2.65;1.70;;;19.30;99.90;;;;;;5057825;28;20199;-68
2023/08/23 03:39:38;;;;;;;2.50;1.75;;;19.30;99.90;;;;;;5058580;28;20184;-69
2023/08/23 03:42:06;;;;;;;5.95;1.83;;;19.30;99.90;;;;;;5058515;28;20187;-68
2023/08/23 03:44:32;;;;;;;3.80;2.00;;;19.30;99.90;;;;;;5058479;28;20176;-68
2023/08/23 03:46:57;;;;;;;2.00;1.70;;;19.20;99.90;;;;;;5058568;28;20182;-68
2023/08/23 03:49:25;;;;;;;2.33;1.70;;;19.20;99.90;;;;;;5058270;28;20223;-69
2023/08/23 03:51:53;;;;;;;4.10;1.83;;;19.20;99.90;;;;;;5058475;28;20168;-69
2023/08/23 03:54:20;;;;;;;2.42;1.88;;;19.20;99.90;;;;;;5054484;28;20235;-69
2023/08/23 03:56:45;;;;;;;5.18;2.20;;;19.20;99.90;;;;;;5057871;28;20207;-70
2023/08/23 03:59:13;;;;;;;3.13;1.80;;;19.10;99.90;;;;;;5055362;28;20170;-68
2023/08/23 04:01:39;;;;;;;2.17;1.70;;;19.10;99.90;;;;;;5057474;28;20173;-69
2023/08/23 04:04:06;;;;;;;6.13;4.25;;;19.10;99.90;;;;;;5061032;28;20184;-69
2023/08/23 04:06:35;;;;;;;14.38;11.27;;;19.10;99.90;;;;;;5061625;28;20176;-69
2023/08/23 04:09:00;;;;;;;7.93;6.15;;;19.10;99.90;;;;;;5054306;28;20177;-68
2023/08/23 04:11:28;;;;;;;6.05;4.40;;;19.00;99.90;;;;;;5057751;28;20280;-69
2023/08/23 04:13:54;;;;;;;5.15;3.70;;;19.00;99.90;;;;;;5057725;28;20222;-68
2023/08/23 04:16:19;;;;;;;4.95;3.10;;;19.00;99.90;;;;;;5062087;28;20185;-70
2023/08/23 04:18:45;;;;;;;5.00;2.47;;;19.00;99.90;;;;;;5057399;28;20195;-69
2023/08/23 04:21:10;;;;;;;4.95;2.30;;;19.00;99.90;;;;;;5057817;28;20184;-69
2023/08/23 04:23:38;;;;;;;3.72;2.30;;;18.90;99.90;;;;;;5057255;28;20200;-69
2023/08/23 04:26:06;;;;;;;4.47;2.70;;;18.90;99.90;;;;;;5057451;28;20218;-69
2023/08/23 04:28:37;;;;;;;5.32;3.45;;;18.80;99.90;;;;;;5057137;28;20184;-69
2023/08/23 04:31:03;;;;;;;4.35;3.35;;;18.80;99.90;;;;;;5055491;28;20184;-67
2023/08/23 04:33:34;;;;;;;3.50;2.88;;;18.70;99.90;;;;;;5037666;28;20180;-69
2023/08/23 04:36:01;;;;;;;5.38;2.92;;;18.70;99.90;;;;;;5037777;28;20197;-70
2023/08/23 04:38:26;;;;;;;4.05;2.40;;;18.70;99.90;;;;;;5047165;28;20202;-68
2023/08/23 04:41:07;;;;;;;7.00;2.22;;;18.70;99.90;;;;;;5068349;28;20177;-69
2023/08/23 04:43:35;;;;;;;2.83;2.03;;;18.70;99.90;;;;;;5056641;28;20200;-70
2023/08/23 04:46:00;;;;;;;6.45;4.15;;;18.60;99.90;;;;;;5056767;28;20184;-70
2023/08/23 04:48:26;;;;;;;5.35;3.40;;;18.60;99.90;;;;;;5053290;28;20215;-70
2023/08/23 04:50:58;;;;;;;3.70;2.72;;;18.60;99.90;;;;;;5068547;28;20196;-70
2023/08/23 04:53:26;;;;;;;3.78;2.40;;;18.60;99.90;;;;;;5055087;28;20329;-70
2023/08/23 04:55:58;;;;;;;3.67;2.35;;;18.60;99.90;;;;;;5056192;28;20176;-70
2023/08/23 04:58:29;;;;;;;3.88;2.45;;;18.60;99.90;;;;;;5060206;28;20172;-70
2023/08/23 05:00:58;;;;;;;3.15;2.35;;;18.60;99.90;;;;;;5069839;28;20164;-69
2023/08/23 05:03:25;;;;;;;3.50;2.33;;;18.60;99.90;;;;;;5059041;28;20208;-69
2023/08/23 05:05:51;;;;;;;4.53;2.85;;;18.60;99.90;;;;;;5062341;28;20187;-70
2023/08/23 05:08:17;;;;;;;3.65;2.60;;;18.60;99.90;;;;;;5071655;28;20211;-69
2023/08/23 05:10:42;;;;;;;2.35;2.10;;;18.70;99.90;;;;;;5046123;28;20228;-66
2023/08/23 05:13:09;;;;;;;3.92;2.33;;;18.70;99.90;;;;;;5058409;28;20248;-70
2023/08/23 05:15:36;;;;;;;3.03;2.40;;;18.70;99.90;;;;;;5056159;28;20169;-70
2023/08/23 05:18:02;;;;;;;2.97;2.67;;;18.70;99.90;;;;;;5056541;28;20189;-69
2023/08/23 05:20:28;;;;;;;3.70;2.63;;;18.80;99.90;;;;;;5070463;28;20188;-70
2023/08/23 05:22:56;;;;;;;5.70;3.25;;;18.80;99.90;;;;;;5056825;28;20188;-71
2023/08/23 05:25:21;;;;;;;3.55;2.45;;;18.90;99.90;;;;;;5057048;28;20258;-70
2023/08/23 05:27:49;;;;;;;4.22;2.70;;;18.90;99.90;;;;;;5057716;28;20204;-71
2023/08/23 05:30:15;;;;;;;3.67;2.90;;;18.90;99.90;;;;;;5052655;28;20350;-72
2023/08/23 05:32:40;;;;;;;4.43;2.70;;;18.90;99.90;;;;;;5037234;28;20209;-75
2023/08/23 05:35:07;;;;;;;3.90;2.40;;;19.00;99.90;;;;;;5036931;28;20179;-74
2023/08/23 05:37:32;;;;;;;6.05;4.32;;;19.00;99.90;;;;;;5066682;28;20204;-73
2023/08/23 05:39:58;;;;;;;7.43;4.10;;;19.10;99.90;;;;;;5057024;28;20240;-76
2023/08/23 05:42:24;;;;;;;4.65;3.10;;;19.10;99.90;;;;;;5056650;28;20193;-73
2023/08/23 05:44:50;;;;;;;3.80;2.50;;;19.10;99.90;;;;;;5056282;28;20196;-73
2023/08/23 05:47:18;;;;;;;6.93;3.30;;;19.10;99.90;;;;;;5056748;28;20173;-76
2023/08/23 05:49:43;;;;;;;4.10;2.65;;;19.10;99.90;;;;;;5056668;28;20197;-73
2023/08/23 05:52:11;;;;;;;7.25;3.40;;;19.10;99.90;;;;;;5056787;28;20196;-75
2023/08/23 05:54:37;;;;;;;6.22;2.95;;;19.20;99.90;;;;;;5058849;28;20196;-76
2023/08/23 05:57:04;;;;;;;4.35;2.60;;;19.20;99.90;;;;;;5055767;28;20207;-74
2023/08/23 05:59:33;;;;;;;5.78;2.70;;;19.30;99.90;;;;;;5054918;28;20166;-73
2023/08/23 06:01:59;;;;;;;4.05;2.53;;;19.30;99.90;;;;;;5058191;28;20191;-72
2023/08/23 06:04:28;;;;;;;4.05;2.47;;;19.30;99.90;;;;;;5060728;28;20193;-76
2023/08/23 06:06:53;;;;;;;3.70;2.72;;;19.40;99.90;;;;;;5061598;28;20198;-80
2023/08/23 06:09:19;;;;;;;4.78;2.47;;;19.50;99.90;;;;;;5060743;28;20251;-71
2023/08/23 06:11:47;;;;;;;5.97;3.08;;;19.50;99.90;;;;;;5056371;28;20476;-71
2023/08/23 06:14:26;;;;;;;3.65;2.80;;;19.50;99.90;;;;;;5040094;28;20177;-71
2023/08/23 06:16:52;;;;;;;5.70;2.80;;;19.60;99.90;;;;;;5043953;28;20177;-70
2023/08/23 06:19:18;;;;;;;4.13;2.75;;;19.60;99.90;;;;;;5059315;28;20226;-71
2023/08/23 06:21:44;;;;;;;3.22;2.58;;;19.70;99.90;;;;;;5059772;28;20181;-72
2023/08/23 06:24:10;;;;;;;5.05;2.78;;;19.70;99.90;;;;;;5059405;28;20179;-72
2023/08/23 06:26:36;;;;;;;4.03;2.67;;;19.80;99.90;;;;;;5059647;28;20176;-72
2023/08/23 06:29:03;;;;;;;3.88;2.78;;;19.80;99.90;;;;;;5059085;28;20237;-70
2023/08/23 06:31:31;;;;;;;4.72;2.45;;;19.90;99.90;;;;;;5059071;28;20405;-72
2023/08/23 06:33:59;;;;;;;5.43;2.67;;;19.90;99.90;;;;;;5059320;28;20172;-73
2023/08/23 06:36:25;;;;;;;3.80;2.63;;;19.90;99.90;;;;;;5057005;28;20188;-71
2023/08/23 06:38:50;;;;;;;4.72;2.60;;;20.00;99.90;;;;;;5059283;28;20192;-71
2023/08/23 06:41:16;;;;;;;5.53;2.47;;;20.00;99.90;;;;;;5059321;28;20180;-73
2023/08/23 06:43:42;;;;;;;3.67;2.50;;;20.00;99.90;;;;;;5058999;28;20192;-71
2023/08/23 06:46:10;;;;;;;4.55;2.90;;;20.10;99.90;;;;;;5058646;28;20173;-71
2023/08/23 06:48:40;;;;;;;4.72;3.25;;;20.10;99.90;;;;;;5058153;28;20258;-72
2023/08/23 06:51:08;;;;;;;3.78;2.55;;;20.20;99.90;;;;;;5059043;28;20211;-72
2023/08/23 06:53:34;;;;;;;9.35;3.55;;;20.20;99.90;;;;;;5044310;28;20203;-72
2023/08/23 06:55:59;;;;;;;6.53;3.00;;;20.30;99.90;;;;;;5039856;28;20498;-70
2023/08/23 06:58:27;;;;;;;3.60;2.83;;;20.30;99.90;;;;;;5055445;28;20173;-72
2023/08/23 07:00:56;;;;;;;3.80;2.92;;;20.40;99.90;;;;;;5058506;28;20205;-72
2023/08/23 07:03:22;;;;;;;3.10;2.63;;;20.40;99.90;;;;;;5058448;28;20176;-71
2023/08/23 07:05:47;;;;;;;5.47;2.70;;;20.50;99.90;;;;;;5075078;28;20291;-73
2023/08/23 07:08:13;;;;;;;4.80;3.20;;;20.50;99.90;;;;;;5058421;28;20176;-72
2023/08/23 07:10:38;;;;;;;3.50;2.50;;;20.60;99.90;;;;;;5058844;28;20189;-73
2023/08/23 07:13:04;;;;;;;3.15;2.35;;;20.70;99.90;;;;;;5057576;28;20176;-72
2023/08/23 07:15:30;;;;;;;4.53;2.60;;;20.70;99.90;;;;;;5042065;28;20165;-73
2023/08/23 07:17:55;;;;;;;2.60;2.40;;;20.80;99.90;;;;;;5048985;28;20196;-71
2023/08/23 07:20:21;;;;;;;3.10;2.28;;;20.80;99.90;;;;;;5058594;28;20175;-69
2023/08/23 07:22:46;;;;;;;5.80;2.70;;;20.90;99.90;;;;;;5045468;28;20186;-70
2023/08/23 07:25:12;;;;;;;3.55;2.92;;;21.00;99.90;;;;;;5058550;28;20177;-72
2023/08/23 07:27:40;;;;;;;5.68;3.55;;;21.00;99.90;;;;;;5058345;28;20234;-71
2023/08/23 07:30:08;;;;;;;3.80;3.03;;;21.10;99.90;;;;;;5054896;28;20211;-73
2023/08/23 07:32:34;;;;;;;4.75;2.63;;;21.20;99.90;;;;;;5055177;28;20226;-71
2023/08/23 07:35:03;;;;;;;4.25;2.88;;;21.20;99.90;;;;;;5058287;28;20200;-71
2023/08/23 07:37:30;;;;;;;4.95;3.20;;;21.30;99.90;;;;;;5057903;28;20194;-72
2023/08/23 07:39:56;;;;;;;4.65;3.33;;;21.40;99.90;;;;;;5057676;28;20173;-72
2023/08/23 07:42:24;;;;;;;3.63;3.00;;;21.50;99.90;;;;;;5058258;28;20230;-72
2023/08/23 07:44:54;;;;;;;4.38;2.80;;;21.60;99.90;;;;;;5057310;28;20212;-69
2023/08/23 07:47:19;;;;;;;3.97;2.78;;;21.60;99.90;;;;;;5056357;28;20230;-71
2023/08/23 07:49:45;;;;;;;4.78;2.90;;;21.70;99.90;;;;;;5038129;28;20189;-69
2023/08/23 07:52:12;;;;;;;3.97;2.85;;;21.80;99.90;;;;;;5037970;28;20185;-69
2023/08/23 07:54:37;;;;;;;3.78;3.08;;;21.80;99.90;;;;;;5042917;28;20165;-69
2023/08/23 07:57:03;;;;;;;4.00;3.15;;;21.90;99.90;;;;;;5054994;28;20195;-72
2023/08/23 07:59:31;;;;;;;3.88;2.65;;;22.00;99.90;;;;;;5057561;28;20228;-69
2023/08/23 08:02:00;;;;;;;3.70;3.10;;;22.10;99.90;;;;;;5057781;28;20172;-72
2023/08/23 08:04:26;;;;;;;3.92;3.00;;;22.20;99.90;;;;;;5057724;28;20200;-71
2023/08/23 08:06:56;;;;;;;4.80;2.90;;;22.30;99.90;;;;;;5057717;28;20184;-72
2023/08/23 08:09:21;;;;;;;4.88;2.85;;;22.30;99.90;;;;;;5057375;28;20191;-71
2023/08/23 08:11:50;;;;;;;5.07;3.00;;;22.40;99.90;;;;;;5057490;28;20294;-72
2023/08/23 08:14:15;;;;;;;2.92;2.60;;;22.50;99.90;;;;;;5055183;28;20386;-71
2023/08/23 08:16:45;;;;;;;6.43;2.90;;;22.50;99.90;;;;;;5051125;28;20429;-69
2023/08/23 08:19:11;;;;;;;4.18;2.53;;;22.60;99.90;;;;;;5057427;28;20262;-70
2023/08/23 08:21:37;;;;;;;2.95;2.30;;;22.70;99.90;;;;;;5053577;28;20212;-70
2023/08/23 08:24:05;;;;;;;2.85;2.28;;;22.80;99.90;;;;;;5054189;28;20216;-70
2023/08/23 08:26:33;;;;;;;3.42;2.58;;;22.90;99.90;;;;;;5053791;28;20251;-68
2023/08/23 08:29:01;;;;;;;4.13;2.25;;;22.90;99.90;;;;;;5037192;28;20204;-68
2023/08/23 08:31:29;;;;;;;2.50;2.03;;;23.00;99.90;;;;;;5050608;28;20219;-71
2023/08/23 08:33:59;;;;;;;4.38;2.47;;;23.00;99.90;;;;;;5058602;28;20267;-68
2023/08/23 08:36:25;;;;;;;2.90;2.17;;;23.10;99.90;;;;;;5058122;28;20176;-71
2023/08/23 08:38:53;;;;;;;2.30;2.10;;;23.20;99.90;;;;;;5057341;28;20181;-71
2023/08/23 08:41:21;;;;;;;3.60;2.30;;;23.30;99.90;;;;;;5057464;28;20263;-70
2023/08/23 08:43:47;;;;;;;3.38;2.22;;;23.40;99.90;;;;;;5043064;28;20181;-71
2023/08/23 08:46:15;;;;;;;4.07;2.30;;;23.50;99.90;;;;;;5056373;28;20279;-71
2023/08/23 08:48:41;;;;;;;5.78;2.30;;;23.60;99.90;;;;;;5056919;28;20196;-71
2023/08/23 08:51:09;;;;;;;2.20;1.98;;;23.60;99.90;;;;;;5056534;28;20219;-71
2023/08/23 08:53:39;;;;;;;3.03;2.42;;;23.70;99.90;;;;;;5056915;28;20184;-69
2023/08/23 08:56:06;;;;;;;2.90;2.05;;;23.80;99.90;;;;;;5056506;28;20172;-71
2023/08/23 08:58:34;;;;;;;3.58;2.30;;;23.90;99.90;;;;;;5056851;28;20172;-71
2023/08/23 09:01:02;;;;;;;4.43;2.40;;;24.00;99.90;;;;;;5056709;28;20191;-71
2023/08/23 09:03:29;;;;;;;3.08;2.15;;;24.10;99.90;;;;;;5056580;28;20203;-72
2023/08/23 09:05:55;;;;;;;2.53;2.13;;;24.20;99.90;;;;;;5056693;28;20208;-72
2023/08/23 09:08:26;;;;;;;3.58;2.00;;;24.30;99.90;;;;;;5048497;28;20173;-71
2023/08/23 09:10:54;;;;;;;2.10;1.80;;;24.30;99.90;;;;;;5053501;28;20199;-72
2023/08/23 09:13:24;;;;;;;4.07;2.70;;;24.50;99.90;;;;;;5056122;28;20191;-72
2023/08/23 09:15:51;;;;;;;2.50;2.03;;;24.50;99.90;;;;;;5056598;28;20192;-70
2023/08/23 09:18:20;;;;;;;3.22;2.30;;;24.70;99.90;;;;;;5060174;28;20182;-72
2023/08/23 09:20:46;;;;;;;2.78;2.20;;;24.80;99.90;;;;;;5076685;28;20356;-71
2023/08/23 09:23:16;;;;;;;2.35;2.10;;;24.90;99.90;;;;;;5058920;28;20204;-72
2023/08/23 09:25:42;;;;;;;2.53;1.73;;;24.90;99.90;;;;;;5056247;28;20233;-72
2023/08/23 09:28:15;;;;;;;2.78;1.90;;;25.10;99.90;;;;;;5056644;28;20177;-72
2023/08/23 09:30:49;;;;;;;4.13;1.98;;;25.20;99.90;;;;;;5059710;28;20196;-71
2023/08/23 09:33:17;;;;;;;2.45;1.73;;;25.30;99.90;;;;;;5060451;28;20171;-70
2023/08/23 09:35:49;;;;;;;3.08;1.67;;;25.40;99.90;;;;;;5060363;28;20222;-71
2023/08/23 09:38:19;;;;;;;2.83;2.38;;;25.50;99.90;;;;;;5060433;28;20249;-71
2023/08/23 09:40:49;;;;;;;2.13;1.80;;;25.70;99.90;;;;;;5040456;28;20184;-71
2023/08/23 09:43:20;;;;;;;2.95;1.90;;;25.80;99.90;;;;;;5061356;28;20196;-72
2023/08/23 09:45:47;;;;;;;2.58;1.88;;;25.90;99.90;;;;;;5060056;28;20210;-70
2023/08/23 09:48:20;;;;;;;3.95;1.77;;;26.00;99.90;;;;;;5060067;28;20192;-72
2023/08/23 09:50:51;;;;;;;2.10;1.58;;;26.20;99.90;;;;;;5060178;28;20345;-72
2023/08/23 09:53:22;;;;;;;3.33;1.70;;;26.30;99.90;;;;;;5040153;28;20241;-71
2023/08/23 09:55:48;;;;;;;3.28;1.60;;;26.40;99.90;;;;;;5076362;28;20200;-68
2023/08/23 09:58:15;;;;;;;2.88;1.90;;;26.50;99.90;;;;;;5060012;28;20187;-71
2023/08/23 10:00:41;;;;;;;3.53;1.70;;;26.60;99.90;;;;;;5059248;28;20215;-72
2023/08/23 10:03:08;;;;;;;2.45;1.70;;;26.60;99.90;;;;;;5060015;28;20261;-72
2023/08/23 10:05:34;;;;;;;2.47;1.80;;;26.70;99.90;;;;;;5059460;28;20176;-71
2023/08/23 10:08:06;;;;;;;3.22;1.90;;;26.80;99.90;;;;;;5059956;28;20216;-72
2023/08/23 10:10:37;;;;;;;3.92;2.03;;;26.90;99.90;;;;;;5059630;28;20225;-71
2023/08/23 10:13:05;;;;;;;3.53;1.80;;;27.20;99.90;;;;;;5059760;28;20201;-72
2023/08/23 10:15:37;;;;;;;2.10;1.50;;;27.60;99.90;;;;;;5059129;28;20168;-72
2023/08/23 10:18:08;;;;;;;2.05;1.85;;;28.10;99.90;;;;;;5059783;28;20184;-72
2023/08/23 10:20:37;;;;;;;2.67;1.52;;;28.60;99.90;;;;;;5059276;28;20181;-72
2023/08/23 10:23:12;;;;;;;2.70;1.60;;;29.10;99.90;;;;;;5057834;28;20218;-71
2023/08/23 10:25:40;;;;;;;2.13;1.60;;;29.60;99.90;;;;;;5073672;28;20188;-71
2023/08/23 10:28:07;;;;;;;2.42;1.45;;;30.10;99.90;;;;;;5059219;28;20179;-71
2023/08/23 10:30:33;;;;;;;1.75;1.23;;;30.50;99.90;;;;;;5059188;28;20212;-73
2023/08/23 10:33:12;;;;;;;2.65;1.58;;;30.90;99.90;;;;;;5057458;28;20176;-72
2023/08/23 10:35:39;;;;;;;2.60;1.10;;;31.40;99.90;;;;;;5048046;28;20245;-72
2023/08/23 10:38:08;;;;;;;1.52;1.08;;;31.70;99.90;;;;;;5059158;28;20255;-69
2023/08/23 10:40:38;;;;;;;1.90;1.08;;;32.00;99.90;;;;;;5058555;28;20350;-72
2023/08/23 10:43:16;;;;;;;2.40;1.05;;;32.30;99.90;;;;;;5058931;28;20223;-72
2023/08/23 10:46:06;;;;;;;2.53;1.13;;;32.60;99.90;;;;;;5055782;28;20183;-71
2023/08/23 10:48:35;;;;;;;3.53;1.15;;;32.70;99.90;;;;;;5058971;28;20264;-72
2023/08/23 10:51:01;;;;;;;1.27;1.05;;;32.80;99.90;;;;;;5045328;28;20196;-71
2023/08/23 10:53:26;;;;;;;2.55;1.10;;;32.80;99.90;;;;;;5055742;28;20196;-73
2023/08/23 10:55:52;;;;;;;2.22;1.00;;;32.90;99.90;;;;;;5055348;28;20172;-72
2023/08/23 10:58:22;;;;;;;1.98;1.20;;;32.90;99.90;;;;;;5046126;28;20203;-72
2023/08/23 11:00:53;;;;;;;1.48;1.10;;;32.80;99.90;;;;;;5058802;28;20218;-71
2023/08/23 11:03:21;;;;;;;3.35;1.40;;;32.80;99.90;;;;;;5058645;28;20187;-69
2023/08/23 11:05:47;;;;;;;1.83;1.05;;;32.90;99.90;;;;;;5059874;28;20282;-72
2023/08/23 11:08:12;;;;;;;3.13;1.38;;;32.80;99.90;;;;;;5052869;28;20270;-71
2023/08/23 11:10:38;;;;;;;4.55;1.70;;;32.80;99.60;;;;;;5058408;28;20253;-72
2023/08/23 11:13:06;;;;;;;1.88;1.30;;;32.80;99.70;;;;;;5055026;28;20177;-69
2023/08/23 11:15:33;;;;;;;1.63;1.20;;;32.80;98.70;;;;;;5059555;28;20181;-72
2023/08/23 11:18:02;;;;;;;2.38;1.33;;;32.80;99.10;;;;;;5064718;28;20196;-71
2023/08/23 11:20:28;;;;;;;1.88;1.35;;;32.90;98.80;;;;;;5058586;28;20222;-69
2023/08/23 11:22:54;;;;;;;2.35;1.10;;;33.00;98.70;;;;;;5057079;28;20457;-71
2023/08/23 11:25:20;;;;;;;2.92;1.23;;;33.00;97.80;;;;;;5051099;28;20237;-72
2023/08/23 11:27:48;;;;;;;1.60;1.10;;;33.10;97.60;;;;;;5049196;28;20179;-72
2023/08/23 11:30:13;;;;;;;1.25;1.10;;;33.00;95.90;;;;;;5058327;28;20250;-70
2023/08/23 11:32:39;;;;;;;1.98;1.30;;;32.90;96.00;;;;;;5057707;28;20221;-72
2023/08/23 11:35:06;;;;;;;1.55;0.90;;;32.80;95.70;;;;;;5058085;28;20204;-73
2023/08/23 11:37:31;;;;;;;1.50;1.20;;;32.60;95.50;;;;;;5057664;28;20186;-73
2023/08/23 11:40:07;;;;;;;1.65;1.10;;;32.50;95.50;;;;;;5057493;28;20168;-73
2023/08/23 11:42:34;;;;;;;1.60;0.85;;;32.50;94.50;;;;;;5062797;28;20191;-72
2023/08/23 11:45:03;;;;;;;1.83;1.20;;;32.40;94.60;;;;;;5054884;28;20172;-73
2023/08/23 11:47:29;;;;;;;1.90;0.98;;;32.40;94.10;;;;;;5054325;28;20263;-73
2023/08/23 11:49:56;;;;;;;1.38;1.10;;;32.50;94.30;;;;;;5058349;28;20482;-73
2023/08/23 11:52:22;;;;;;;2.38;1.17;;;32.50;93.90;;;;;;5057518;28;20283;-74
2023/08/23 11:54:52;;;;;;;1.52;1.10;;;32.50;93.90;;;;;;5057453;28;20200;-73
2023/08/23 11:57:20;;;;;;;1.83;1.00;;;32.60;92.70;;;;;;5057321;28;20168;-71
2023/08/23 11:59:46;;;;;;;1.52;1.00;;;32.60;92.90;;;;;;5057535;28;20263;-72
2023/08/23 12:02:12;;;;;;;1.85;1.00;;;32.60;92.80;;;;;;5057325;28;20842;-72
2023/08/23 12:04:41;;;;;;;1.90;0.98;;;32.60;91.80;;;;;;5056957;28;20196;-73
2023/08/23 12:07:07;;;;;;;2.08;1.13;;;32.70;91.40;;;;;;5057789;28;20168;-73
2023/08/23 12:09:33;;;;;;;1.80;1.08;;;32.60;91.60;;;;;;5057659;28;20202;-72
2023/08/23 12:12:03;;;;;;;2.92;0.80;;;32.60;91.70;;;;;;5048688;28;20211;-73
2023/08/23 12:14:34;;;;;;;1.60;0.90;;;32.60;91.10;;;;;;5057416;28;20171;-74
2023/08/23 12:17:01;;;;;;;1.10;1.00;;;32.70;91.10;;;;;;5041288;28;20200;-74
2023/08/23 12:19:27;;;;;;;3.17;1.02;;;32.70;91.70;;;;;;5046231;28;20187;-75
2023/08/23 12:21:55;;;;;;;1.17;0.90;;;32.80;92.00;;;;;;5057070;28;20204;-73
2023/08/23 12:24:25;;;;;;;1.58;0.98;;;32.90;91.10;;;;;;5074965;28;20179;-75
2023/08/23 12:26:51;;;;;;;2.00;0.90;;;32.90;90.90;;;;;;5057047;28;20203;-73
2023/08/23 12:29:16;;;;;;;1.73;1.00;;;32.90;91.40;;;;;;5057104;28;20190;-73
2023/08/23 12:31:44;;;;;;;1.90;1.05;;;33.10;91.40;;;;;;5057183;28;20219;-74
2023/08/23 12:34:10;;;;;;;1.30;0.90;;;33.10;91.10;;;;;;5056400;28;20182;-71
2023/08/23 12:36:38;;;;;;;2.13;1.00;;;33.20;90.70;;;;;;5057142;28;20244;-73
2023/08/23 12:39:04;;;;;;;1.65;0.85;;;33.30;90.10;;;;;;5056549;28;20203;-74
2023/08/23 12:41:30;;;;;;;4.65;3.20;;;33.40;90.40;;;;;;5057086;28;20204;-73
2023/08/23 12:44:00;;;;;;;2.83;1.60;;;33.50;89.40;;;;;;5056758;28;20171;-71
2023/08/23 12:46:25;;;;;;;2.70;1.75;;;33.60;89.80;;;;;;5056361;28;20168;-74